DAUG/GHA METAR and TAF weather

Enter ICAO airport designator
Station Type Date Time Source
DAUG METAR 2021/05/11 00:00 UTC NOAA

DAUG 110000Z 27004KT CAVOK 29/// Q1009


Station Type Date Time Source
DAUG Decoded METAR 2021/05/11 00:00 UTC NOAA

Ghardaia, Algeria (DAUG) 32-23N 003-49E 450M
May 10, 2021 - 08:00 PM EDT / 2021.05.11 0000 UTC
Wind: from the W (270 degrees) at 5 MPH (4 KT):0
Visibility: greater than 7 mile(s):0
Temperature: 84 F (29 C)
Pressure (altimeter): 29.80 in. Hg (1009 hPa)
ob: DAUG 110000Z 27004KT CAVOK 29/// Q1009
cycle: 0

Station Type Date Time Source
DAUG TAF 2021/05/10 18:33 UTC NOAA

TAF DAUG 101700Z 1018/1118 20010KT CAVOK
BECMG 1023/1101 36012KT PROB40 1102/1109 02022KT 3000 DRSA

Example: see airport list